createdAt,value
2022-08-18T00:01:15.850Z,19.61
2022-08-18T00:04:03.275Z,19.63
2022-08-18T00:06:49.078Z,18.51
2022-08-18T00:09:36.608Z,19.54
2022-08-18T00:12:33.369Z,19.59
2022-08-18T00:15:19.499Z,19.56
2022-08-18T00:18:05.009Z,18.42
2022-08-18T00:20:50.678Z,19.21
2022-08-18T00:23:36.064Z,19.28
2022-08-18T00:26:22.434Z,19.25
2022-08-18T00:29:07.730Z,19.09
2022-08-18T00:31:53.186Z,18.11
2022-08-18T00:34:38.545Z,19.01
2022-08-18T00:37:24.975Z,18.96
2022-08-18T00:40:17.900Z,17.78
2022-08-18T00:43:06.208Z,18.58
2022-08-18T00:45:52.816Z,18.35
2022-08-18T00:48:38.457Z,17.76
2022-08-18T00:51:27.728Z,18.74
2022-08-18T00:54:24.154Z,18.76
2022-08-18T00:57:09.558Z,18.78
2022-08-18T01:00:05.628Z,17.62
2022-08-18T01:02:56.029Z,18.96
2022-08-18T01:06:06.597Z,18.95
2022-08-18T01:08:51.967Z,17.83
2022-08-18T01:11:39.454Z,18.97
2022-08-18T01:14:25.116Z,17.80
2022-08-18T01:17:28.887Z,18.81
2022-08-18T01:20:39.924Z,17.74
2022-08-18T01:23:26.180Z,18.18
2022-08-18T01:26:13.125Z,18.32
2022-08-18T01:29:06.056Z,18.61
2022-08-18T01:31:57.037Z,18.76
2022-08-18T01:34:42.561Z,18.23
2022-08-18T01:37:29.280Z,18.46
2022-08-18T01:41:17.648Z,17.59
2022-08-18T01:43:23.016Z,15.91
2022-08-18T01:46:09.053Z,18.57
2022-08-18T01:48:54.976Z,18.51
2022-08-18T01:51:42.687Z,17.50
2022-08-18T01:54:30.131Z,18.35
2022-08-18T01:57:17.672Z,18.39
2022-08-18T02:00:04.402Z,17.30
2022-08-18T02:03:02.060Z,18.10
2022-08-18T02:05:50.882Z,18.31
2022-08-18T02:08:38.237Z,17.22
2022-08-18T02:11:27.251Z,17.99
2022-08-18T02:14:12.716Z,17.22
2022-08-18T02:17:01.762Z,18.03
2022-08-18T02:19:48.413Z,17.38
2022-08-18T02:22:33.808Z,18.23
2022-08-18T02:25:19.820Z,18.21
2022-08-18T02:28:05.865Z,17.82
2022-08-18T02:30:51.702Z,18.06
2022-08-18T02:33:38.118Z,18.12
2022-08-18T02:36:25.310Z,18.10
2022-08-18T02:39:11.793Z,17.57
2022-08-18T02:41:57.130Z,18.17
2022-08-18T02:44:42.774Z,18.19
2022-08-18T02:47:33.416Z,17.46
2022-08-18T02:50:19.313Z,18.24
2022-08-18T02:53:05.018Z,18.15
2022-08-18T02:55:50.924Z,18.47
2022-08-18T02:58:36.416Z,18.57
2022-08-18T03:01:34.754Z,18.58
2022-08-18T03:04:28.554Z,18.63
2022-08-18T03:07:15.092Z,18.77
2022-08-18T03:10:31.745Z,18.79
2022-08-18T03:13:06.087Z,18.87
2022-08-18T03:15:56.561Z,17.78
2022-08-18T03:18:42.853Z,18.90
2022-08-18T03:21:31.043Z,18.97
2022-08-18T03:24:22.985Z,18.62
2022-08-18T03:27:09.133Z,18.69
2022-08-18T03:29:54.910Z,19.05
2022-08-18T03:32:40.529Z,19.04
2022-08-18T03:35:31.417Z,18.79
2022-08-18T03:38:16.864Z,18.18
2022-08-18T03:41:02.239Z,18.81
2022-08-18T03:43:49.777Z,18.91
2022-08-18T03:46:37.396Z,17.78
2022-08-18T03:49:23.394Z,18.64
2022-08-18T03:52:10.300Z,18.85
2022-08-18T03:54:55.916Z,18.83
2022-08-18T03:57:45.748Z,17.87
2022-08-18T04:00:32.085Z,18.94
2022-08-18T04:03:17.805Z,18.11
2022-08-18T04:06:03.936Z,17.94
2022-08-18T04:08:55.056Z,18.17
2022-08-18T04:11:43.362Z,18.33
2022-08-18T04:14:32.723Z,17.98
2022-08-18T04:17:24.724Z,18.95
2022-08-18T04:20:11.841Z,19.05
2022-08-18T04:22:57.220Z,17.99
2022-08-18T04:25:42.454Z,18.68
2022-08-18T04:28:29.095Z,18.47
2022-08-18T04:31:15.769Z,18.61
2022-08-18T04:34:03.470Z,18.21
2022-08-18T04:36:54.047Z,19.08
2022-08-18T04:39:39.567Z,18.05
2022-08-18T04:42:24.804Z,18.51
2022-08-18T04:45:10.473Z,18.07
2022-08-18T04:47:55.940Z,18.93
2022-08-18T04:50:42.192Z,19.20
2022-08-18T04:53:46.343Z,19.24
2022-08-18T04:56:36.915Z,19.30
2022-08-18T04:59:22.590Z,19.37
2022-08-18T05:02:14.510Z,19.41
2022-08-18T05:05:03.436Z,19.37
2022-08-18T05:07:49.326Z,19.61
2022-08-18T05:10:35.639Z,19.05
2022-08-18T05:13:21.660Z,19.82
2022-08-18T05:16:11.878Z,20.06
2022-08-18T05:19:11.560Z,19.21
2022-08-18T05:21:59.809Z,20.43
2022-08-18T05:24:47.087Z,19.90
2022-08-18T05:27:35.360Z,19.95
2022-08-18T05:30:21.511Z,21.17
2022-08-18T05:33:10.216Z,21.25
2022-08-18T05:36:05.305Z,21.67
2022-08-18T05:39:15.207Z,21.86
2022-08-18T05:42:18.967Z,21.73
2022-08-18T05:45:11.281Z,21.28
2022-08-18T05:48:00.592Z,22.27
2022-08-18T05:50:46.556Z,21.64
2022-08-18T05:53:51.225Z,21.90
2022-08-18T05:56:48.520Z,22.78
2022-08-18T05:59:37.388Z,22.99
2022-08-18T06:02:29.155Z,23.22
2022-08-18T06:05:27.610Z,23.36
2022-08-18T06:08:16.187Z,23.40
2022-08-18T06:11:01.897Z,23.29
2022-08-18T06:13:47.320Z,22.50
2022-08-18T06:16:41.693Z,23.54
2022-08-18T06:19:33.500Z,23.57
2022-08-18T06:22:21.998Z,22.63
2022-08-18T06:25:21.931Z,22.94
2022-08-18T06:28:13.579Z,23.07
2022-08-18T06:31:27.412Z,22.88
2022-08-18T06:34:14.888Z,23.89
2022-08-18T06:37:28.611Z,24.00
2022-08-18T06:40:14.256Z,23.97
2022-08-18T06:43:02.153Z,24.05
2022-08-18T06:45:51.625Z,24.25
2022-08-18T06:48:43.789Z,24.41
2022-08-18T06:51:30.111Z,24.52
2022-08-18T06:54:21.748Z,24.60
2022-08-18T06:57:28.272Z,24.51
2022-08-18T07:00:17.289Z,24.59
2022-08-18T07:03:11.852Z,24.53
2022-08-18T07:06:24.801Z,23.75
2022-08-18T07:09:24.292Z,24.48
2022-08-18T07:12:11.128Z,23.65
2022-08-18T07:15:02.731Z,24.69
2022-08-18T07:17:49.091Z,24.71
2022-08-18T07:20:59.932Z,24.81
2022-08-18T07:24:23.225Z,24.90
2022-08-18T07:27:17.763Z,24.97
2022-08-18T07:30:33.637Z,24.88
2022-08-18T07:33:26.261Z,25.03
2022-08-18T07:36:14.781Z,25.16
2022-08-18T07:39:14.160Z,25.29
2022-08-18T07:42:08.507Z,25.23
2022-08-18T07:45:00.781Z,25.50
2022-08-18T07:47:55.159Z,24.72
2022-08-18T07:51:00.784Z,25.70
2022-08-18T07:54:00.939Z,25.59
2022-08-18T07:57:00.079Z,25.82
2022-08-18T08:00:20.607Z,26.17
2022-08-18T08:03:41.365Z,26.14
2022-08-18T08:06:30.002Z,26.44
2022-08-18T08:09:52.959Z,26.41
2022-08-18T08:13:09.178Z,26.63
2022-08-18T08:16:19.995Z,26.59
2022-08-18T08:19:49.283Z,26.67
2022-08-18T08:22:53.355Z,26.78
2022-08-18T08:25:53.490Z,26.80
2022-08-18T08:28:46.839Z,26.80
2022-08-18T08:31:53.607Z,26.67
2022-08-18T08:34:58.095Z,26.75
2022-08-18T08:38:08.232Z,26.70
2022-08-18T08:41:20.217Z,26.53
2022-08-18T08:44:13.860Z,26.09
2022-08-18T08:47:03.723Z,25.99
2022-08-18T08:50:00.326Z,26.74
2022-08-18T08:52:57.303Z,26.80
2022-08-18T08:55:50.688Z,26.26
2022-08-18T08:58:41.548Z,27.04
2022-08-18T09:01:38.202Z,26.16
2022-08-18T09:04:32.050Z,27.09
2022-08-18T09:07:45.681Z,26.47
2022-08-18T09:10:57.334Z,27.14
2022-08-18T09:13:45.956Z,27.16
2022-08-18T09:16:48.253Z,27.20
2022-08-18T09:20:12.432Z,27.23
2022-08-18T09:23:06.175Z,27.28
2022-08-18T09:25:57.156Z,27.36
2022-08-18T09:29:01.773Z,27.09
2022-08-18T09:31:47.070Z,27.39
2022-08-18T09:34:51.369Z,27.25
2022-08-18T09:38:13.482Z,27.23
2022-08-18T09:41:33.145Z,27.36
2022-08-18T09:44:51.551Z,27.33
2022-08-18T09:47:37.485Z,27.36
2022-08-18T09:50:28.725Z,27.39
2022-08-18T09:53:47.947Z,27.21
2022-08-18T10:00:03.867Z,27.38
2022-08-18T10:02:54.292Z,27.41
2022-08-18T10:05:54.937Z,26.52
2022-08-18T10:08:59.720Z,26.67
2022-08-18T10:15:32.809Z,26.77
2022-08-18T10:19:04.984Z,27.60
2022-08-18T10:21:56.548Z,27.66
2022-08-18T10:25:09.222Z,27.47
2022-08-18T10:28:10.300Z,27.38
2022-08-18T10:31:09.817Z,26.82
2022-08-18T10:34:18.447Z,27.76
2022-08-18T10:37:21.452Z,27.81
2022-08-18T10:40:15.052Z,27.77
2022-08-18T10:43:46.335Z,27.87
2022-08-18T10:46:33.438Z,27.55
2022-08-18T10:49:27.984Z,27.97
2022-08-18T10:52:40.283Z,27.44
2022-08-18T10:55:50.008Z,27.99
2022-08-18T10:58:51.172Z,27.96
2022-08-18T11:02:15.582Z,27.96
2022-08-18T11:08:20.049Z,28.11
2022-08-18T11:11:34.442Z,28.11
2022-08-18T11:14:51.148Z,28.01
2022-08-18T11:18:10.503Z,27.98
2022-08-18T11:21:22.416Z,28.01
2022-08-18T11:24:29.692Z,28.02
2022-08-18T11:27:25.325Z,27.77
2022-08-18T11:30:12.123Z,27.96
2022-08-18T11:36:07.285Z,27.66
2022-08-18T11:38:55.422Z,27.92
2022-08-18T11:41:48.228Z,27.42
2022-08-18T11:44:39.128Z,27.84
2022-08-18T11:47:27.765Z,27.70
2022-08-18T11:50:28.369Z,27.79
2022-08-18T11:53:38.723Z,27.87
2022-08-18T11:56:35.682Z,27.96
2022-08-18T12:02:32.396Z,27.98
2022-08-18T12:05:19.065Z,27.91
2022-08-18T12:08:50.690Z,27.78
2022-08-18T12:11:36.350Z,27.93
2022-08-18T12:17:37.960Z,28.06
2022-08-18T12:20:24.140Z,28.10
2022-08-18T12:23:10.559Z,28.10
2022-08-18T12:25:59.480Z,28.06
2022-08-18T12:28:45.844Z,28.05
2022-08-18T12:31:42.660Z,28.08
2022-08-18T12:34:34.114Z,28.14
2022-08-18T12:37:57.559Z,27.45
2022-08-18T12:40:31.619Z,28.17
2022-08-18T12:43:17.786Z,28.12
2022-08-18T12:46:06.739Z,27.75
2022-08-18T12:48:58.445Z,28.18
2022-08-18T12:51:45.657Z,27.86
2022-08-18T12:54:36.672Z,28.14
2022-08-18T13:00:48.384Z,28.14
2022-08-18T13:03:37.958Z,28.13
2022-08-18T13:06:36.670Z,28.03
2022-08-18T13:09:34.672Z,28.09
2022-08-18T13:12:29.237Z,28.07
2022-08-18T13:15:15.731Z,28.09
2022-08-18T13:18:02.730Z,28.09
2022-08-18T13:20:51.302Z,27.19
2022-08-18T13:23:38.993Z,28.07
2022-08-18T13:26:30.812Z,27.68
2022-08-18T13:29:18.580Z,27.86
2022-08-18T13:32:09.316Z,27.30
2022-08-18T13:35:02.662Z,28.17
2022-08-18T13:37:55.988Z,28.01
2022-08-18T13:40:46.980Z,28.22
2022-08-18T13:43:37.815Z,28.26
2022-08-18T13:46:31.222Z,28.29
2022-08-18T13:49:24.056Z,28.31
2022-08-18T13:52:34.770Z,28.32
2022-08-18T13:55:32.078Z,27.98
2022-08-18T13:58:20.893Z,28.32
2022-08-18T14:01:42.607Z,28.26
2022-08-18T14:04:20.199Z,28.28
2022-08-18T14:07:10.405Z,28.26
2022-08-18T14:09:57.957Z,28.26
2022-08-18T14:12:46.471Z,28.21
2022-08-18T14:15:36.400Z,28.20
2022-08-18T14:18:28.592Z,27.48
2022-08-18T14:21:34.368Z,28.21
2022-08-18T14:24:43.427Z,27.94
2022-08-18T14:27:39.051Z,28.22
2022-08-18T14:30:27.404Z,28.22
2022-08-18T14:36:09.381Z,28.27
2022-08-18T14:38:57.797Z,28.26
2022-08-18T14:41:54.535Z,28.26
2022-08-18T14:44:42.127Z,27.47
2022-08-18T14:47:33.483Z,28.25
2022-08-18T14:50:25.671Z,27.89
2022-08-18T14:53:14.438Z,27.34
2022-08-18T14:56:01.156Z,28.20
2022-08-18T14:58:50.667Z,28.05
2022-08-18T15:01:42.489Z,27.40
2022-08-18T15:04:28.619Z,27.40
2022-08-18T15:07:18.259Z,28.06
2022-08-18T15:10:14.924Z,28.07
2022-08-18T15:13:02.372Z,27.91
2022-08-18T15:15:51.228Z,27.80
2022-08-18T15:18:38.878Z,28.06
2022-08-18T15:21:49.040Z,28.06
2022-08-18T15:24:58.611Z,28.05
2022-08-18T15:27:46.069Z,28.03
2022-08-18T15:30:40.113Z,28.02
2022-08-18T15:33:32.309Z,28.02
2022-08-18T15:36:29.136Z,28.02
2022-08-18T15:39:16.321Z,28.00
2022-08-18T15:42:11.130Z,27.89
2022-08-18T15:45:11.831Z,27.96
2022-08-18T15:47:59.703Z,27.93
2022-08-18T15:50:51.588Z,27.93
2022-08-18T15:53:39.995Z,27.39
2022-08-18T15:56:31.776Z,26.97
2022-08-18T15:59:18.216Z,27.85
2022-08-18T16:02:11.645Z,27.81
2022-08-18T16:05:09.095Z,27.65
2022-08-18T16:07:59.515Z,27.77
2022-08-18T16:10:47.075Z,27.75
2022-08-18T16:13:33.576Z,27.69
2022-08-18T16:16:29.066Z,27.65
2022-08-18T16:19:25.718Z,27.69
2022-08-18T16:22:16.961Z,27.32
2022-08-18T16:25:08.108Z,27.66
2022-08-18T16:27:56.374Z,27.66
2022-08-18T16:30:43.258Z,27.41
2022-08-18T16:33:31.503Z,27.61
2022-08-18T16:36:21.147Z,27.59
2022-08-18T16:39:08.296Z,27.30
2022-08-18T16:41:56.265Z,27.53
2022-08-18T16:44:44.440Z,27.49
2022-08-18T16:47:37.947Z,27.45
2022-08-18T16:50:25.440Z,26.46
2022-08-18T16:53:11.242Z,27.29
2022-08-18T16:55:57.033Z,27.23
2022-08-18T16:59:01.416Z,27.13
2022-08-18T17:02:05.631Z,26.12
2022-08-18T17:04:52.123Z,26.89
2022-08-18T17:07:38.504Z,26.89
2022-08-18T17:10:25.253Z,26.84
2022-08-18T17:13:12.844Z,26.79
2022-08-18T17:15:58.804Z,26.73
2022-08-18T17:18:45.286Z,26.63
2022-08-18T17:24:31.092Z,26.48
2022-08-18T17:27:27.689Z,26.41
2022-08-18T17:30:24.012Z,26.32
2022-08-18T17:33:15.649Z,25.85
2022-08-18T17:36:08.758Z,26.07
2022-08-18T17:38:58.912Z,26.01
2022-08-18T17:42:04.678Z,25.93
2022-08-18T17:44:54.196Z,25.85
2022-08-18T17:48:13.561Z,25.79
2022-08-18T17:51:27.323Z,25.63
2022-08-18T17:54:27.615Z,25.58
2022-08-18T17:57:35.130Z,25.40
2022-08-18T18:00:22.013Z,24.99
2022-08-18T18:03:09.048Z,24.00
2022-08-18T18:06:09.083Z,24.91
2022-08-18T18:09:32.231Z,23.85
2022-08-18T18:12:25.980Z,24.73
2022-08-18T18:15:35.287Z,24.50
2022-08-18T18:18:43.052Z,23.77
2022-08-18T18:21:58.881Z,24.75
2022-08-18T18:24:41.248Z,23.83
2022-08-18T18:27:47.444Z,24.76
2022-08-18T18:30:37.036Z,24.00
2022-08-18T18:33:24.336Z,24.64
2022-08-18T18:36:13.911Z,24.65
2022-08-18T18:39:20.250Z,24.57
2022-08-18T18:42:19.692Z,24.52
2022-08-18T18:45:13.848Z,24.53
2022-08-18T18:48:48.158Z,24.48
2022-08-18T18:51:50.898Z,24.38
2022-08-18T18:54:39.777Z,24.28
2022-08-18T18:57:54.158Z,24.04
2022-08-18T19:00:55.764Z,24.13
2022-08-18T19:03:49.908Z,24.00
2022-08-18T19:06:56.199Z,23.86
2022-08-18T19:09:50.514Z,23.75
2022-08-18T19:12:50.048Z,23.72
2022-08-18T19:15:38.601Z,22.64
2022-08-18T19:18:38.753Z,23.63
2022-08-18T19:22:04.308Z,23.62
2022-08-18T19:24:43.189Z,-143.01
2022-08-18T19:27:36.951Z,-143.01
2022-08-18T19:30:23.149Z,-143.01
2022-08-18T19:33:15.983Z,-143.01
2022-08-18T19:36:29.838Z,-143.01
2022-08-18T19:39:22.708Z,-143.01
2022-08-18T19:42:26.622Z,-143.01
2022-08-18T19:45:30.186Z,-143.01
2022-08-18T19:48:22.326Z,-143.01
2022-08-18T19:51:32.153Z,-143.01
2022-08-18T19:54:21.055Z,-143.01
2022-08-18T19:57:25.767Z,-143.01
2022-08-18T20:01:02.434Z,-143.01
2022-08-18T20:04:11.397Z,-143.01
2022-08-18T20:07:38.364Z,-143.01
2022-08-18T20:10:27.123Z,-143.01
2022-08-18T20:13:25.489Z,-143.01
2022-08-18T20:16:43.459Z,-143.01
2022-08-18T20:19:49.748Z,-143.01
2022-08-18T20:22:57.324Z,-143.01
2022-08-18T20:25:49.240Z,-143.01
2022-08-18T20:28:40.042Z,-143.01
2022-08-18T20:32:03.407Z,-143.01
2022-08-18T20:34:51.592Z,-143.01
2022-08-18T20:37:37.328Z,-143.01
2022-08-18T20:40:45.818Z,-143.01
2022-08-18T20:43:35.806Z,-143.01
2022-08-18T20:46:43.298Z,-143.01
2022-08-18T20:49:50.971Z,-143.01
2022-08-18T20:52:48.716Z,-143.01
2022-08-18T20:55:38.325Z,-143.01
2022-08-18T20:58:36.237Z,-143.01
2022-08-18T21:01:25.669Z,-143.01
2022-08-18T21:04:12.379Z,-143.01
2022-08-18T21:06:58.577Z,-143.01
2022-08-18T21:10:12.134Z,-143.01
2022-08-18T21:13:06.688Z,-143.01
2022-08-18T21:15:52.645Z,-143.01
2022-08-18T21:18:40.460Z,-143.01
2022-08-18T21:21:33.522Z,-143.01
2022-08-18T21:24:33.026Z,-143.01
2022-08-18T21:27:30.226Z,-143.01
2022-08-18T21:30:22.587Z,-143.01
2022-08-18T21:33:20.313Z,-143.01
2022-08-18T21:36:13.408Z,-143.01
2022-08-18T21:39:06.381Z,-143.01
2022-08-18T21:41:55.147Z,-143.01
2022-08-18T21:44:44.570Z,-143.01
2022-08-18T21:47:34.039Z,-143.01
2022-08-18T21:50:28.547Z,-143.01
2022-08-18T21:53:23.840Z,-143.01
2022-08-18T21:56:23.452Z,-143.01
2022-08-18T21:59:12.561Z,-143.01
2022-08-18T22:01:57.968Z,-143.01
2022-08-18T22:04:47.298Z,-143.01
2022-08-18T22:07:35.650Z,-143.01
2022-08-18T22:10:54.351Z,-143.01
2022-08-18T22:13:58.476Z,-143.01
2022-08-18T22:16:45.266Z,-143.01
2022-08-18T22:19:30.774Z,-143.01
2022-08-18T22:22:37.097Z,-143.01
2022-08-18T22:25:24.148Z,-143.01
2022-08-18T22:28:09.480Z,-143.01
2022-08-18T22:30:54.779Z,-143.01
2022-08-18T22:33:40.475Z,-143.01
2022-08-18T22:36:28.391Z,-143.01
2022-08-18T22:39:18.283Z,-143.01
2022-08-18T22:42:05.213Z,-143.01
2022-08-18T22:44:51.027Z,-143.01
2022-08-18T22:47:42.931Z,-143.01
2022-08-18T22:50:30.693Z,-143.01
2022-08-18T22:53:17.601Z,-143.01
2022-08-18T22:56:05.979Z,-143.01
2022-08-18T22:58:54.061Z,-143.01
2022-08-18T23:01:40.241Z,-143.01
2022-08-18T23:04:27.617Z,-143.01
2022-08-18T23:07:13.455Z,-143.01
2022-08-18T23:09:59.096Z,-143.01
2022-08-18T23:12:46.884Z,-143.01
2022-08-18T23:15:47.679Z,-143.01
2022-08-18T23:18:33.250Z,-143.01
2022-08-18T23:21:34.946Z,-143.01
2022-08-18T23:24:22.298Z,-143.01
2022-08-18T23:27:07.844Z,-143.01
2022-08-18T23:29:53.500Z,-143.01
2022-08-18T23:32:38.973Z,-143.01
2022-08-18T23:35:25.140Z,-143.01
2022-08-18T23:38:13.095Z,-143.01
2022-08-18T23:40:59.097Z,-143.01
2022-08-18T23:43:48.250Z,-143.01
2022-08-18T23:46:35.062Z,-143.01
2022-08-18T23:49:20.971Z,-143.01
2022-08-18T23:52:06.557Z,-143.01
2022-08-18T23:54:51.959Z,-143.01
2022-08-18T23:57:37.346Z,-143.01
